sensor_id;sensor_type;location;lat;lon;timestamp;temperature;humidity
21992;DHT22;11160;51.576;0.194;2022-07-29T00:00:14;23.00;61.80
21992;DHT22;11160;51.576;0.194;2022-07-29T00:02:41;23.00;62.00
21992;DHT22;11160;51.576;0.194;2022-07-29T00:05:09;23.00;62.00
21992;DHT22;11160;51.576;0.194;2022-07-29T00:07:36;22.90;61.90
21992;DHT22;11160;51.576;0.194;2022-07-29T00:10:04;22.90;62.10
21992;DHT22;11160;51.576;0.194;2022-07-29T00:12:32;22.90;62.10
21992;DHT22;11160;51.576;0.194;2022-07-29T00:14:59;22.90;62.10
21992;DHT22;11160;51.576;0.194;2022-07-29T00:17:26;22.90;62.10
21992;DHT22;11160;51.576;0.194;2022-07-29T00:19:54;22.90;62.10
21992;DHT22;11160;51.576;0.194;2022-07-29T00:22:21;22.90;62.30
21992;DHT22;11160;51.576;0.194;2022-07-29T00:24:48;22.80;62.20
21992;DHT22;11160;51.576;0.194;2022-07-29T00:27:17;22.90;62.40
21992;DHT22;11160;51.576;0.194;2022-07-29T00:29:44;22.80;62.40
21992;DHT22;11160;51.576;0.194;2022-07-29T00:32:12;22.80;62.60
21992;DHT22;11160;51.576;0.194;2022-07-29T00:34:39;22.80;62.50
21992;DHT22;11160;51.576;0.194;2022-07-29T00:37:26;22.80;62.60
21992;DHT22;11160;51.576;0.194;2022-07-29T00:39:54;22.80;62.60
21992;DHT22;11160;51.576;0.194;2022-07-29T00:42:21;22.70;62.60
21992;DHT22;11160;51.576;0.194;2022-07-29T00:44:49;22.70;62.70
21992;DHT22;11160;51.576;0.194;2022-07-29T00:47:17;22.70;62.90
21992;DHT22;11160;51.576;0.194;2022-07-29T00:49:44;22.70;63.10
21992;DHT22;11160;51.576;0.194;2022-07-29T00:52:12;22.70;63.20
21992;DHT22;11160;51.576;0.194;2022-07-29T00:54:43;22.70;63.30
21992;DHT22;11160;51.576;0.194;2022-07-29T00:57:11;22.60;63.20
21992;DHT22;11160;51.576;0.194;2022-07-29T00:59:39;22.70;63.30
21992;DHT22;11160;51.576;0.194;2022-07-29T01:02:06;22.60;63.30
21992;DHT22;11160;51.576;0.194;2022-07-29T01:04:34;22.60;63.20
21992;DHT22;11160;51.576;0.194;2022-07-29T01:07:02;22.60;63.30
21992;DHT22;11160;51.576;0.194;2022-07-29T01:09:34;22.60;63.60
21992;DHT22;11160;51.576;0.194;2022-07-29T01:12:23;22.60;63.60
21992;DHT22;11160;51.576;0.194;2022-07-29T01:14:52;22.60;63.70
21992;DHT22;11160;51.576;0.194;2022-07-29T01:30:54;22.50;63.80
21992;DHT22;11160;51.576;0.194;2022-07-29T01:33:24;22.50;63.90
21992;DHT22;11160;51.576;0.194;2022-07-29T01:36:19;22.50;64.00
21992;DHT22;11160;51.576;0.194;2022-07-29T01:39:06;22.40;64.20
21992;DHT22;11160;51.576;0.194;2022-07-29T01:41:36;22.40;64.10
21992;DHT22;11160;51.576;0.194;2022-07-29T01:44:15;22.40;64.20
21992;DHT22;11160;51.576;0.194;2022-07-29T01:46:49;22.40;64.40
21992;DHT22;11160;51.576;0.194;2022-07-29T01:49:36;22.40;64.40
21992;DHT22;11160;51.576;0.194;2022-07-29T01:52:09;22.40;64.30
21992;DHT22;11160;51.576;0.194;2022-07-29T01:54:55;22.40;64.40
21992;DHT22;11160;51.576;0.194;2022-07-29T01:57:29;22.40;64.50
21992;DHT22;11160;51.576;0.194;2022-07-29T01:59:59;22.40;64.60
21992;DHT22;11160;51.576;0.194;2022-07-29T02:02:40;22.40;64.70
21992;DHT22;11160;51.576;0.194;2022-07-29T02:05:10;22.30;64.70
21992;DHT22;11160;51.576;0.194;2022-07-29T02:07:41;22.30;64.80
21992;DHT22;11160;51.576;0.194;2022-07-29T02:10:12;22.30;64.70
21992;DHT22;11160;51.576;0.194;2022-07-29T02:12:40;22.30;64.60
21992;DHT22;11160;51.576;0.194;2022-07-29T02:15:17;22.30;64.80
21992;DHT22;11160;51.576;0.194;2022-07-29T02:17:50;22.30;65.00
21992;DHT22;11160;51.576;0.194;2022-07-29T02:20:19;22.30;65.10
21992;DHT22;11160;51.576;0.194;2022-07-29T02:22:47;22.30;65.30
21992;DHT22;11160;51.576;0.194;2022-07-29T02:25:18;22.20;65.30
21992;DHT22;11160;51.576;0.194;2022-07-29T02:27:47;22.30;65.20
21992;DHT22;11160;51.576;0.194;2022-07-29T02:30:16;22.20;65.30
21992;DHT22;11160;51.576;0.194;2022-07-29T02:32:45;22.20;65.30
21992;DHT22;11160;51.576;0.194;2022-07-29T02:35:15;22.20;65.40
21992;DHT22;11160;51.576;0.194;2022-07-29T02:37:44;22.20;65.50
21992;DHT22;11160;51.576;0.194;2022-07-29T02:40:34;22.20;65.50
21992;DHT22;11160;51.576;0.194;2022-07-29T02:43:06;22.20;65.60
21992;DHT22;11160;51.576;0.194;2022-07-29T02:45:34;22.20;65.80
21992;DHT22;11160;51.576;0.194;2022-07-29T02:48:06;22.20;65.80
21992;DHT22;11160;51.576;0.194;2022-07-29T02:50:48;22.20;66.00
21992;DHT22;11160;51.576;0.194;2022-07-29T02:53:19;22.20;66.20
21992;DHT22;11160;51.576;0.194;2022-07-29T02:55:54;22.20;66.00
21992;DHT22;11160;51.576;0.194;2022-07-29T02:58:31;22.10;66.00
21992;DHT22;11160;51.576;0.194;2022-07-29T03:01:16;22.10;66.10
21992;DHT22;11160;51.576;0.194;2022-07-29T03:03:50;22.10;65.90
21992;DHT22;11160;51.576;0.194;2022-07-29T03:06:21;22.10;66.00
21992;DHT22;11160;51.576;0.194;2022-07-29T03:09:08;22.10;66.00
21992;DHT22;11160;51.576;0.194;2022-07-29T03:11:40;22.10;66.00
21992;DHT22;11160;51.576;0.194;2022-07-29T03:14:20;22.10;66.10
21992;DHT22;11160;51.576;0.194;2022-07-29T03:16:48;22.10;66.10
21992;DHT22;11160;51.576;0.194;2022-07-29T03:19:19;22.10;66.00
21992;DHT22;11160;51.576;0.194;2022-07-29T03:21:47;22.10;66.20
21992;DHT22;11160;51.576;0.194;2022-07-29T03:24:44;22.00;66.10
21992;DHT22;11160;51.576;0.194;2022-07-29T03:27:13;22.00;66.00
21992;DHT22;11160;51.576;0.194;2022-07-29T03:29:40;22.00;66.10
21992;DHT22;11160;51.576;0.194;2022-07-29T03:32:15;22.00;66.20
21992;DHT22;11160;51.576;0.194;2022-07-29T03:34:49;22.00;66.20
21992;DHT22;11160;51.576;0.194;2022-07-29T03:37:17;22.00;66.50
21992;DHT22;11160;51.576;0.194;2022-07-29T03:39:44;22.00;66.50
21992;DHT22;11160;51.576;0.194;2022-07-29T03:42:14;22.00;66.50
21992;DHT22;11160;51.576;0.194;2022-07-29T03:44:46;22.00;66.50
21992;DHT22;11160;51.576;0.194;2022-07-29T03:47:16;22.00;66.50
21992;DHT22;11160;51.576;0.194;2022-07-29T03:49:48;22.00;66.50
21992;DHT22;11160;51.576;0.194;2022-07-29T03:52:16;21.90;66.60
21992;DHT22;11160;51.576;0.194;2022-07-29T03:54:44;21.90;66.80
21992;DHT22;11160;51.576;0.194;2022-07-29T03:57:12;22.00;66.80
21992;DHT22;11160;51.576;0.194;2022-07-29T03:59:42;21.90;66.80
21992;DHT22;11160;51.576;0.194;2022-07-29T04:02:11;21.90;66.80
21992;DHT22;11160;51.576;0.194;2022-07-29T04:04:41;21.90;67.00
21992;DHT22;11160;51.576;0.194;2022-07-29T04:07:12;21.90;66.90
21992;DHT22;11160;51.576;0.194;2022-07-29T04:09:40;21.90;67.00
21992;DHT22;11160;51.576;0.194;2022-07-29T04:12:07;21.90;66.90
21992;DHT22;11160;51.576;0.194;2022-07-29T04:14:34;21.90;66.90
21992;DHT22;11160;51.576;0.194;2022-07-29T04:17:02;21.90;67.10
21992;DHT22;11160;51.576;0.194;2022-07-29T04:19:31;21.80;67.00
21992;DHT22;11160;51.576;0.194;2022-07-29T04:21:59;21.80;67.20
21992;DHT22;11160;51.576;0.194;2022-07-29T04:24:26;21.80;67.20
21992;DHT22;11160;51.576;0.194;2022-07-29T04:26:53;21.80;67.30
21992;DHT22;11160;51.576;0.194;2022-07-29T04:29:20;21.80;68.20
21992;DHT22;11160;51.576;0.194;2022-07-29T04:31:47;21.80;67.50
21992;DHT22;11160;51.576;0.194;2022-07-29T04:34:14;21.80;67.40
21992;DHT22;11160;51.576;0.194;2022-07-29T04:36:42;21.80;67.60
21992;DHT22;11160;51.576;0.194;2022-07-29T04:39:09;21.80;67.80
21992;DHT22;11160;51.576;0.194;2022-07-29T04:41:37;21.80;67.90
21992;DHT22;11160;51.576;0.194;2022-07-29T04:44:04;21.80;68.00
21992;DHT22;11160;51.576;0.194;2022-07-29T04:46:33;21.80;67.80
21992;DHT22;11160;51.576;0.194;2022-07-29T04:49:01;21.80;67.80
21992;DHT22;11160;51.576;0.194;2022-07-29T04:51:29;21.80;67.80
21992;DHT22;11160;51.576;0.194;2022-07-29T04:53:56;21.80;67.80
21992;DHT22;11160;51.576;0.194;2022-07-29T04:56:23;21.70;67.60
21992;DHT22;11160;51.576;0.194;2022-07-29T04:58:51;21.80;67.80
21992;DHT22;11160;51.576;0.194;2022-07-29T05:01:19;21.70;67.90
21992;DHT22;11160;51.576;0.194;2022-07-29T05:03:46;21.80;67.90
21992;DHT22;11160;51.576;0.194;2022-07-29T05:06:13;21.70;67.80
21992;DHT22;11160;51.576;0.194;2022-07-29T05:08:40;21.70;67.90
21992;DHT22;11160;51.576;0.194;2022-07-29T05:11:07;21.70;68.00
21992;DHT22;11160;51.576;0.194;2022-07-29T05:13:38;21.70;68.30
21992;DHT22;11160;51.576;0.194;2022-07-29T05:16:12;21.70;68.40
21992;DHT22;11160;51.576;0.194;2022-07-29T05:18:40;21.70;68.40
21992;DHT22;11160;51.576;0.194;2022-07-29T05:21:07;21.70;68.50
21992;DHT22;11160;51.576;0.194;2022-07-29T05:23:34;21.70;68.50
21992;DHT22;11160;51.576;0.194;2022-07-29T05:26:01;21.70;68.50
21992;DHT22;11160;51.576;0.194;2022-07-29T05:28:33;21.70;68.50
21992;DHT22;11160;51.576;0.194;2022-07-29T05:31:01;21.70;68.50
21992;DHT22;11160;51.576;0.194;2022-07-29T05:33:28;21.70;68.40
21992;DHT22;11160;51.576;0.194;2022-07-29T05:36:05;21.70;68.30
21992;DHT22;11160;51.576;0.194;2022-07-29T05:38:35;21.70;68.30
21992;DHT22;11160;51.576;0.194;2022-07-29T05:41:03;21.70;68.40
21992;DHT22;11160;51.576;0.194;2022-07-29T05:43:31;21.70;68.40
21992;DHT22;11160;51.576;0.194;2022-07-29T05:45:58;21.70;68.40
21992;DHT22;11160;51.576;0.194;2022-07-29T05:48:25;21.70;68.40
21992;DHT22;11160;51.576;0.194;2022-07-29T05:50:52;21.70;68.50
21992;DHT22;11160;51.576;0.194;2022-07-29T05:53:20;21.70;68.50
21992;DHT22;11160;51.576;0.194;2022-07-29T05:55:48;21.70;68.50
21992;DHT22;11160;51.576;0.194;2022-07-29T05:58:15;21.70;68.50
21992;DHT22;11160;51.576;0.194;2022-07-29T06:00:43;21.80;68.70
21992;DHT22;11160;51.576;0.194;2022-07-29T06:03:10;21.70;68.70
21992;DHT22;11160;51.576;0.194;2022-07-29T06:05:37;21.80;68.80
21992;DHT22;11160;51.576;0.194;2022-07-29T06:08:04;21.80;68.60
21992;DHT22;11160;51.576;0.194;2022-07-29T06:10:35;21.80;68.60
21992;DHT22;11160;51.576;0.194;2022-07-29T06:13:02;21.80;68.80
21992;DHT22;11160;51.576;0.194;2022-07-29T06:15:29;21.80;68.60
21992;DHT22;11160;51.576;0.194;2022-07-29T06:17:57;21.80;68.60
21992;DHT22;11160;51.576;0.194;2022-07-29T06:20:27;21.80;68.60
21992;DHT22;11160;51.576;0.194;2022-07-29T06:22:57;21.90;68.70
21992;DHT22;11160;51.576;0.194;2022-07-29T06:25:24;21.90;68.70
21992;DHT22;11160;51.576;0.194;2022-07-29T06:27:51;21.90;68.70
21992;DHT22;11160;51.576;0.194;2022-07-29T06:30:19;21.90;68.70
21992;DHT22;11160;51.576;0.194;2022-07-29T06:32:46;21.90;68.70
21992;DHT22;11160;51.576;0.194;2022-07-29T06:35:13;21.90;68.70
21992;DHT22;11160;51.576;0.194;2022-07-29T06:38:04;21.90;68.80
21992;DHT22;11160;51.576;0.194;2022-07-29T06:40:51;21.90;68.80
21992;DHT22;11160;51.576;0.194;2022-07-29T06:43:38;21.90;69.20
21992;DHT22;11160;51.576;0.194;2022-07-29T06:46:17;21.90;69.00
21992;DHT22;11160;51.576;0.194;2022-07-29T06:48:45;21.90;69.00
21992;DHT22;11160;51.576;0.194;2022-07-29T06:51:12;21.90;69.20
21992;DHT22;11160;51.576;0.194;2022-07-29T06:53:40;21.90;69.20
21992;DHT22;11160;51.576;0.194;2022-07-29T06:56:27;22.00;69.20
21992;DHT22;11160;51.576;0.194;2022-07-29T06:58:56;22.00;69.10
21992;DHT22;11160;51.576;0.194;2022-07-29T07:01:23;22.10;69.20
21992;DHT22;11160;51.576;0.194;2022-07-29T07:03:50;22.20;69.00
21992;DHT22;11160;51.576;0.194;2022-07-29T07:06:18;22.30;69.10
21992;DHT22;11160;51.576;0.194;2022-07-29T07:08:45;22.40;69.20
21992;DHT22;11160;51.576;0.194;2022-07-29T07:11:12;22.40;69.30
21992;DHT22;11160;51.576;0.194;2022-07-29T07:13:39;22.50;69.50
21992;DHT22;11160;51.576;0.194;2022-07-29T07:16:06;22.60;69.60
21992;DHT22;11160;51.576;0.194;2022-07-29T07:18:34;22.60;69.70
21992;DHT22;11160;51.576;0.194;2022-07-29T07:21:01;22.70;69.80
21992;DHT22;11160;51.576;0.194;2022-07-29T07:23:28;22.70;69.90
21992;DHT22;11160;51.576;0.194;2022-07-29T07:25:55;22.80;70.20
21992;DHT22;11160;51.576;0.194;2022-07-29T07:28:22;22.80;70.30
21992;DHT22;11160;51.576;0.194;2022-07-29T07:30:51;22.90;70.40
21992;DHT22;11160;51.576;0.194;2022-07-29T07:33:18;23.00;70.50
21992;DHT22;11160;51.576;0.194;2022-07-29T07:35:46;23.00;70.60
21992;DHT22;11160;51.576;0.194;2022-07-29T07:38:13;23.10;70.70
21992;DHT22;11160;51.576;0.194;2022-07-29T07:40:41;23.10;70.90
21992;DHT22;11160;51.576;0.194;2022-07-29T07:43:08;23.20;71.30
21992;DHT22;11160;51.576;0.194;2022-07-29T07:45:35;23.20;71.40
21992;DHT22;11160;51.576;0.194;2022-07-29T07:48:04;23.30;71.80
21992;DHT22;11160;51.576;0.194;2022-07-29T07:50:31;23.40;72.10
21992;DHT22;11160;51.576;0.194;2022-07-29T07:52:58;23.40;72.20
21992;DHT22;11160;51.576;0.194;2022-07-29T07:55:26;23.50;72.50
21992;DHT22;11160;51.576;0.194;2022-07-29T07:57:54;23.50;72.70
21992;DHT22;11160;51.576;0.194;2022-07-29T08:00:22;23.60;72.80
21992;DHT22;11160;51.576;0.194;2022-07-29T08:02:49;23.60;71.90
21992;DHT22;11160;51.576;0.194;2022-07-29T08:05:17;23.60;71.70
21992;DHT22;11160;51.576;0.194;2022-07-29T08:07:46;23.60;71.40
21992;DHT22;11160;51.576;0.194;2022-07-29T08:10:18;23.60;70.80
21992;DHT22;11160;51.576;0.194;2022-07-29T08:13:07;23.60;70.30
21992;DHT22;11160;51.576;0.194;2022-07-29T08:15:34;23.60;70.30
21992;DHT22;11160;51.576;0.194;2022-07-29T08:18:02;23.70;70.00
21992;DHT22;11160;51.576;0.194;2022-07-29T08:20:36;23.80;68.00
21992;DHT22;11160;51.576;0.194;2022-07-29T08:23:07;23.80;66.10
21992;DHT22;11160;51.576;0.194;2022-07-29T08:25:36;23.80;64.80
21992;DHT22;11160;51.576;0.194;2022-07-29T08:28:06;23.80;67.20
21992;DHT22;11160;51.576;0.194;2022-07-29T08:30:34;23.90;65.90
21992;DHT22;11160;51.576;0.194;2022-07-29T08:33:01;24.00;67.20
21992;DHT22;11160;51.576;0.194;2022-07-29T08:35:28;24.00;67.50
21992;DHT22;11160;51.576;0.194;2022-07-29T08:38:01;24.10;66.80
21992;DHT22;11160;51.576;0.194;2022-07-29T08:40:30;24.20;67.20
21992;DHT22;11160;51.576;0.194;2022-07-29T08:43:03;24.20;67.50
21992;DHT22;11160;51.576;0.194;2022-07-29T08:45:47;24.30;67.00
21992;DHT22;11160;51.576;0.194;2022-07-29T08:48:16;24.30;64.90
21992;DHT22;11160;51.576;0.194;2022-07-29T08:50:45;24.30;66.20
21992;DHT22;11160;51.576;0.194;2022-07-29T08:53:15;24.30;65.90
21992;DHT22;11160;51.576;0.194;2022-07-29T08:55:47;24.40;64.10
21992;DHT22;11160;51.576;0.194;2022-07-29T08:58:16;24.40;62.20
21992;DHT22;11160;51.576;0.194;2022-07-29T09:00:51;24.40;62.30
21992;DHT22;11160;51.576;0.194;2022-07-29T09:03:23;24.40;61.60
21992;DHT22;11160;51.576;0.194;2022-07-29T09:05:51;24.40;61.00
21992;DHT22;11160;51.576;0.194;2022-07-29T09:08:19;24.40;61.00
21992;DHT22;11160;51.576;0.194;2022-07-29T09:10:47;24.50;61.10
21992;DHT22;11160;51.576;0.194;2022-07-29T09:13:14;24.50;61.60
21992;DHT22;11160;51.576;0.194;2022-07-29T09:15:41;24.60;61.60
21992;DHT22;11160;51.576;0.194;2022-07-29T09:18:08;24.60;62.40
21992;DHT22;11160;51.576;0.194;2022-07-29T09:20:55;24.60;62.60
21992;DHT22;11160;51.576;0.194;2022-07-29T09:23:41;24.70;62.60
21992;DHT22;11160;51.576;0.194;2022-07-29T09:26:09;24.80;59.80
21992;DHT22;11160;51.576;0.194;2022-07-29T09:28:41;24.80;59.90
21992;DHT22;11160;51.576;0.194;2022-07-29T09:31:09;24.80;59.40
21992;DHT22;11160;51.576;0.194;2022-07-29T09:33:36;24.90;60.20
21992;DHT22;11160;51.576;0.194;2022-07-29T09:36:08;24.90;58.60
21992;DHT22;11160;51.576;0.194;2022-07-29T09:38:36;24.90;59.20
21992;DHT22;11160;51.576;0.194;2022-07-29T09:41:04;25.00;60.60
21992;DHT22;11160;51.576;0.194;2022-07-29T09:43:33;25.00;59.70
21992;DHT22;11160;51.576;0.194;2022-07-29T09:46:18;25.10;61.60
21992;DHT22;11160;51.576;0.194;2022-07-29T09:49:12;25.10;63.00
21992;DHT22;11160;51.576;0.194;2022-07-29T09:51:39;25.20;61.70
21992;DHT22;11160;51.576;0.194;2022-07-29T09:54:26;25.20;61.00
21992;DHT22;11160;51.576;0.194;2022-07-29T09:56:55;25.30;59.20
21992;DHT22;11160;51.576;0.194;2022-07-29T09:59:22;25.30;60.90
21992;DHT22;11160;51.576;0.194;2022-07-29T10:01:52;25.40;61.30
21992;DHT22;11160;51.576;0.194;2022-07-29T10:04:21;25.50;61.70
21992;DHT22;11160;51.576;0.194;2022-07-29T10:06:59;25.60;61.80
21992;DHT22;11160;51.576;0.194;2022-07-29T10:09:33;25.70;62.40
21992;DHT22;11160;51.576;0.194;2022-07-29T10:12:08;25.70;62.80
21992;DHT22;11160;51.576;0.194;2022-07-29T10:14:41;25.80;63.30
21992;DHT22;11160;51.576;0.194;2022-07-29T10:17:10;25.90;63.80
21992;DHT22;11160;51.576;0.194;2022-07-29T10:19:38;26.00;64.00
21992;DHT22;11160;51.576;0.194;2022-07-29T10:22:07;26.10;64.30
21992;DHT22;11160;51.576;0.194;2022-07-29T10:24:36;26.20;64.50
21992;DHT22;11160;51.576;0.194;2022-07-29T10:27:06;26.30;64.70
21992;DHT22;11160;51.576;0.194;2022-07-29T10:29:33;26.40;64.90
21992;DHT22;11160;51.576;0.194;2022-07-29T10:43:36;26.80;66.20
21992;DHT22;11160;51.576;0.194;2022-07-29T10:46:08;26.80;66.20
21992;DHT22;11160;51.576;0.194;2022-07-29T10:49:08;26.90;66.50
21992;DHT22;11160;51.576;0.194;2022-07-29T10:54:44;27.00;67.60
21992;DHT22;11160;51.576;0.194;2022-07-29T10:57:19;27.10;67.60
21992;DHT22;11160;51.576;0.194;2022-07-29T11:02:44;27.30;67.50
21992;DHT22;11160;51.576;0.194;2022-07-29T11:05:20;27.30;68.30
21992;DHT22;11160;51.576;0.194;2022-07-29T11:10:47;27.50;68.00
21992;DHT22;11160;51.576;0.194;2022-07-29T11:16:13;27.70;66.70
21992;DHT22;11160;51.576;0.194;2022-07-29T11:21:42;27.80;67.00
21992;DHT22;11160;51.576;0.194;2022-07-29T11:29:59;28.30;66.30
21992;DHT22;11160;51.576;0.194;2022-07-29T11:32:37;28.40;65.90
21992;DHT22;11160;51.576;0.194;2022-07-29T11:35:17;28.60;65.60
21992;DHT22;11160;51.576;0.194;2022-07-29T11:41:29;29.10;65.00
21992;DHT22;11160;51.576;0.194;2022-07-29T11:44:03;29.30;64.40
21992;DHT22;11160;51.576;0.194;2022-07-29T11:46:50;29.40;64.90
21992;DHT22;11160;51.576;0.194;2022-07-29T11:49:44;29.70;63.30
21992;DHT22;11160;51.576;0.194;2022-07-29T11:52:14;30.20;64.00
21992;DHT22;11160;51.576;0.194;2022-07-29T11:54:42;30.70;63.00
21992;DHT22;11160;51.576;0.194;2022-07-29T11:57:29;31.20;61.50
21992;DHT22;11160;51.576;0.194;2022-07-29T12:00:06;31.70;60.00
21992;DHT22;11160;51.576;0.194;2022-07-29T12:02:43;32.20;58.20
21992;DHT22;11160;51.576;0.194;2022-07-29T12:08:10;33.00;55.90
21992;DHT22;11160;51.576;0.194;2022-07-29T12:10:40;33.40;54.40
21992;DHT22;11160;51.576;0.194;2022-07-29T12:13:09;33.90;54.30
21992;DHT22;11160;51.576;0.194;2022-07-29T12:15:38;34.30;53.10
21992;DHT22;11160;51.576;0.194;2022-07-29T12:18:19;34.70;52.30
21992;DHT22;11160;51.576;0.194;2022-07-29T12:21:00;35.00;50.70
21992;DHT22;11160;51.576;0.194;2022-07-29T12:23:31;35.10;50.20
21992;DHT22;11160;51.576;0.194;2022-07-29T12:26:07;35.20;50.70
21992;DHT22;11160;51.576;0.194;2022-07-29T12:28:38;35.00;50.50
21992;DHT22;11160;51.576;0.194;2022-07-29T12:31:05;34.70;50.70
21992;DHT22;11160;51.576;0.194;2022-07-29T12:33:39;34.50;51.30
21992;DHT22;11160;51.576;0.194;2022-07-29T12:36:07;34.30;51.60
21992;DHT22;11160;51.576;0.194;2022-07-29T12:38:42;34.20;52.00
21992;DHT22;11160;51.576;0.194;2022-07-29T12:41:10;33.90;52.40
21992;DHT22;11160;51.576;0.194;2022-07-29T12:43:52;33.50;52.90
21992;DHT22;11160;51.576;0.194;2022-07-29T12:46:19;33.20;53.90
21992;DHT22;11160;51.576;0.194;2022-07-29T12:48:50;33.00;54.20
21992;DHT22;11160;51.576;0.194;2022-07-29T12:51:35;33.40;54.00
21992;DHT22;11160;51.576;0.194;2022-07-29T12:56:35;34.60;51.40
21992;DHT22;11160;51.576;0.194;2022-07-29T12:59:31;35.10;50.60
21992;DHT22;11160;51.576;0.194;2022-07-29T13:01:58;35.50;48.20
21992;DHT22;11160;51.576;0.194;2022-07-29T13:04:28;35.90;49.00
21992;DHT22;11160;51.576;0.194;2022-07-29T13:07:23;36.30;48.40
21992;DHT22;11160;51.576;0.194;2022-07-29T13:12:39;36.90;47.00
21992;DHT22;11160;51.576;0.194;2022-07-29T13:15:14;36.60;46.60
21992;DHT22;11160;51.576;0.194;2022-07-29T13:17:42;36.20;46.20
21992;DHT22;11160;51.576;0.194;2022-07-29T13:20:13;35.70;47.20
21992;DHT22;11160;51.576;0.194;2022-07-29T13:22:41;35.20;47.70
21992;DHT22;11160;51.576;0.194;2022-07-29T13:25:09;35.10;48.20
21992;DHT22;11160;51.576;0.194;2022-07-29T13:27:37;34.90;48.40
21992;DHT22;11160;51.576;0.194;2022-07-29T13:30:08;34.60;48.50
21992;DHT22;11160;51.576;0.194;2022-07-29T13:32:36;34.20;44.10
21992;DHT22;11160;51.576;0.194;2022-07-29T13:35:06;34.10;40.40
21992;DHT22;11160;51.576;0.194;2022-07-29T13:37:35;34.00;39.30
21992;DHT22;11160;51.576;0.194;2022-07-29T13:40:07;33.50;38.80
21992;DHT22;11160;51.576;0.194;2022-07-29T13:42:35;33.20;38.00
21992;DHT22;11160;51.576;0.194;2022-07-29T13:45:03;33.20;35.30
21992;DHT22;11160;51.576;0.194;2022-07-29T13:47:31;33.50;39.20
21992;DHT22;11160;51.576;0.194;2022-07-29T13:50:04;33.80;39.40
21992;DHT22;11160;51.576;0.194;2022-07-29T13:52:32;34.00;38.00
21992;DHT22;11160;51.576;0.194;2022-07-29T13:55:00;34.10;39.00
21992;DHT22;11160;51.576;0.194;2022-07-29T13:57:28;34.00;40.10
21992;DHT22;11160;51.576;0.194;2022-07-29T13:59:55;33.60;38.40
21992;DHT22;11160;51.576;0.194;2022-07-29T14:02:23;33.20;38.70
21992;DHT22;11160;51.576;0.194;2022-07-29T14:04:53;32.70;39.90
21992;DHT22;11160;51.576;0.194;2022-07-29T14:07:21;32.20;39.80
21992;DHT22;11160;51.576;0.194;2022-07-29T14:09:48;32.00;40.80
21992;DHT22;11160;51.576;0.194;2022-07-29T14:12:15;31.80;41.60
21992;DHT22;11160;51.576;0.194;2022-07-29T14:14:43;31.70;42.60
21992;DHT22;11160;51.576;0.194;2022-07-29T14:17:13;31.70;40.80
21992;DHT22;11160;51.576;0.194;2022-07-29T14:19:40;31.70;40.80
21992;DHT22;11160;51.576;0.194;2022-07-29T14:22:08;31.50;42.20
21992;DHT22;11160;51.576;0.194;2022-07-29T14:24:36;31.50;41.00
21992;DHT22;11160;51.576;0.194;2022-07-29T14:27:08;31.50;40.10
21992;DHT22;11160;51.576;0.194;2022-07-29T14:29:35;31.50;41.50
21992;DHT22;11160;51.576;0.194;2022-07-29T14:32:09;31.40;41.80
21992;DHT22;11160;51.576;0.194;2022-07-29T14:34:37;31.40;41.60
21992;DHT22;11160;51.576;0.194;2022-07-29T14:37:05;31.40;42.70
21992;DHT22;11160;51.576;0.194;2022-07-29T14:39:33;31.30;43.30
21992;DHT22;11160;51.576;0.194;2022-07-29T14:42:09;31.20;43.70
21992;DHT22;11160;51.576;0.194;2022-07-29T14:44:39;31.10;44.10
21992;DHT22;11160;51.576;0.194;2022-07-29T14:47:07;30.90;44.70
21992;DHT22;11160;51.576;0.194;2022-07-29T14:49:34;30.80;45.00
21992;DHT22;11160;51.576;0.194;2022-07-29T14:52:03;30.70;45.40
21992;DHT22;11160;51.576;0.194;2022-07-29T14:54:30;30.50;45.80
21992;DHT22;11160;51.576;0.194;2022-07-29T14:56:57;30.40;46.30
21992;DHT22;11160;51.576;0.194;2022-07-29T14:59:25;30.30;46.70
21992;DHT22;11160;51.576;0.194;2022-07-29T15:01:54;30.20;47.10
21992;DHT22;11160;51.576;0.194;2022-07-29T15:04:21;30.00;47.60
21992;DHT22;11160;51.576;0.194;2022-07-29T15:06:48;30.00;48.00
21992;DHT22;11160;51.576;0.194;2022-07-29T15:09:15;29.90;48.30
21992;DHT22;11160;51.576;0.194;2022-07-29T15:11:42;29.80;48.70
21992;DHT22;11160;51.576;0.194;2022-07-29T15:14:09;29.70;48.90
21992;DHT22;11160;51.576;0.194;2022-07-29T15:16:38;29.70;49.30
21992;DHT22;11160;51.576;0.194;2022-07-29T15:19:09;29.70;47.90
21992;DHT22;11160;51.576;0.194;2022-07-29T15:21:36;29.60;47.90
21992;DHT22;11160;51.576;0.194;2022-07-29T15:24:17;29.60;47.00
21992;DHT22;11160;51.576;0.194;2022-07-29T15:26:45;29.50;46.30
21992;DHT22;11160;51.576;0.194;2022-07-29T15:29:15;29.50;46.40
21992;DHT22;11160;51.576;0.194;2022-07-29T15:31:43;29.50;46.40
21992;DHT22;11160;51.576;0.194;2022-07-29T15:34:10;29.40;46.10
21992;DHT22;11160;51.576;0.194;2022-07-29T15:36:37;29.40;46.20
21992;DHT22;11160;51.576;0.194;2022-07-29T15:39:21;29.50;46.10
21992;DHT22;11160;51.576;0.194;2022-07-29T15:41:49;29.40;46.10
21992;DHT22;11160;51.576;0.194;2022-07-29T15:44:17;29.30;46.20
21992;DHT22;11160;51.576;0.194;2022-07-29T15:46:47;29.40;46.10
21992;DHT22;11160;51.576;0.194;2022-07-29T15:49:31;29.30;46.10
21992;DHT22;11160;51.576;0.194;2022-07-29T15:52:18;29.30;46.00
21992;DHT22;11160;51.576;0.194;2022-07-29T15:54:53;29.20;46.10
21992;DHT22;11160;51.576;0.194;2022-07-29T15:57:21;29.10;46.10
21992;DHT22;11160;51.576;0.194;2022-07-29T15:59:49;29.00;46.00
21992;DHT22;11160;51.576;0.194;2022-07-29T16:02:16;29.00;45.90
21992;DHT22;11160;51.576;0.194;2022-07-29T16:04:43;28.90;45.90
21992;DHT22;11160;51.576;0.194;2022-07-29T16:07:10;28.90;46.10
21992;DHT22;11160;51.576;0.194;2022-07-29T16:09:40;28.80;46.20
21992;DHT22;11160;51.576;0.194;2022-07-29T16:12:07;28.80;46.40
21992;DHT22;11160;51.576;0.194;2022-07-29T16:14:42;28.70;46.30
21992;DHT22;11160;51.576;0.194;2022-07-29T16:17:10;28.70;46.30
21992;DHT22;11160;51.576;0.194;2022-07-29T16:22:20;28.70;46.60
21992;DHT22;11160;51.576;0.194;2022-07-29T16:24:47;28.60;46.70
21992;DHT22;11160;51.576;0.194;2022-07-29T16:27:15;28.60;47.30
21992;DHT22;11160;51.576;0.194;2022-07-29T16:29:42;28.40;47.40
21992;DHT22;11160;51.576;0.194;2022-07-29T16:32:09;28.30;47.50
21992;DHT22;11160;51.576;0.194;2022-07-29T16:34:37;28.20;47.70
21992;DHT22;11160;51.576;0.194;2022-07-29T16:37:04;28.20;47.70
21992;DHT22;11160;51.576;0.194;2022-07-29T16:39:32;28.10;47.70
21992;DHT22;11160;51.576;0.194;2022-07-29T16:41:59;28.10;48.00
21992;DHT22;11160;51.576;0.194;2022-07-29T16:44:30;28.00;48.10
21992;DHT22;11160;51.576;0.194;2022-07-29T16:46:58;28.00;48.40
21992;DHT22;11160;51.576;0.194;2022-07-29T16:49:26;27.90;48.90
21992;DHT22;11160;51.576;0.194;2022-07-29T16:51:53;27.90;49.40